createdAt,value
2019-04-30T00:01:19.422Z,71.96
2019-04-30T00:03:59.361Z,72.10
2019-04-30T00:06:34.374Z,72.43
2019-04-30T00:09:01.378Z,71.85
2019-04-30T00:11:32.792Z,71.49
2019-04-30T00:14:05.510Z,71.77
2019-04-30T00:16:39.810Z,71.59
2019-04-30T00:19:10.725Z,72.67
2019-04-30T00:21:41.414Z,71.63
2019-04-30T00:24:12.384Z,72.13
2019-04-30T00:26:45.043Z,72.46
2019-04-30T00:29:19.234Z,72.79
2019-04-30T00:31:48.867Z,72.46
2019-04-30T00:34:19.844Z,72.20
2019-04-30T00:36:50.727Z,72.05
2019-04-30T00:39:21.789Z,73.28
2019-04-30T00:41:52.773Z,72.47
2019-04-30T00:44:24.886Z,72.10
2019-04-30T00:47:00.575Z,72.37
2019-04-30T00:49:29.948Z,71.50
2019-04-30T00:52:00.827Z,72.89
2019-04-30T00:54:31.851Z,72.38
2019-04-30T00:57:04.511Z,72.28
2019-04-30T00:59:35.318Z,71.28
2019-04-30T01:02:19.977Z,71.82
2019-04-30T01:04:50.477Z,72.89
2019-04-30T01:07:21.377Z,73.31
2019-04-30T01:09:52.319Z,73.24
2019-04-30T01:12:28.939Z,73.08
2019-04-30T01:14:56.468Z,73.07
2019-04-30T01:17:29.861Z,72.24
2019-04-30T01:20:00.843Z,73.50
2019-04-30T01:22:32.941Z,73.22
2019-04-30T01:25:08.982Z,73.98
2019-04-30T01:27:39.491Z,72.68
2019-04-30T01:30:22.411Z,73.70
2019-04-30T01:32:56.836Z,72.10
2019-04-30T01:35:23.747Z,72.05
2019-04-30T01:37:56.054Z,71.59
2019-04-30T01:40:28.561Z,72.73
2019-04-30T01:43:00.094Z,71.47
2019-04-30T01:45:31.784Z,72.11
2019-04-30T01:48:08.780Z,72.54
2019-04-30T01:50:38.647Z,72.71
2019-04-30T01:53:09.632Z,72.63
2019-04-30T01:56:06.008Z,73.09
2019-04-30T01:58:49.072Z,73.64
2019-04-30T02:01:22.139Z,72.85
2019-04-30T02:03:53.083Z,72.80
2019-04-30T02:06:24.265Z,72.86
2019-04-30T02:08:55.335Z,73.13
2019-04-30T02:11:26.345Z,73.18
2019-04-30T02:13:58.974Z,73.41
2019-04-30T02:16:30.977Z,72.73
2019-04-30T02:19:02.325Z,72.50
2019-04-30T02:21:33.742Z,73.81
2019-04-30T02:24:04.701Z,73.24
2019-04-30T02:26:35.682Z,73.05
2019-04-30T02:29:06.591Z,73.79
2019-04-30T02:31:40.591Z,72.94
2019-04-30T02:34:25.331Z,72.79
2019-04-30T02:37:06.334Z,73.15
2019-04-30T02:39:40.157Z,73.89
2019-04-30T02:42:13.186Z,73.60
2019-04-30T02:44:43.678Z,73.59
2019-04-30T02:47:15.058Z,74.20
2019-04-30T02:49:46.023Z,73.49
2019-04-30T02:52:19.564Z,73.62
2019-04-30T02:54:50.142Z,73.60
2019-04-30T02:57:23.498Z,73.43
2019-04-30T03:00:10.040Z,73.95
2019-04-30T03:02:40.563Z,74.50
2019-04-30T03:05:13.689Z,72.85
2019-04-30T03:07:44.240Z,73.01
2019-04-30T03:10:15.050Z,72.75
2019-04-30T03:12:45.991Z,73.17
2019-04-30T03:15:19.506Z,72.05
2019-04-30T03:18:09.897Z,72.21
2019-04-30T03:21:09.754Z,71.12
2019-04-30T03:23:41.137Z,71.17
2019-04-30T03:26:12.902Z,71.12
2019-04-30T03:28:49.195Z,71.05
2019-04-30T03:31:22.587Z,71.00
2019-04-30T03:33:52.594Z,70.96
2019-04-30T03:36:23.922Z,70.92
2019-04-30T03:38:55.018Z,72.87
2019-04-30T03:41:25.969Z,73.19
2019-04-30T03:44:13.857Z,71.93
2019-04-30T03:46:29.957Z,71.60
2019-04-30T03:49:00.929Z,71.17
2019-04-30T03:51:31.858Z,71.37
2019-04-30T03:54:03.039Z,71.48
2019-04-30T03:56:34.359Z,71.47
2019-04-30T03:59:06.962Z,71.67
2019-04-30T04:01:59.385Z,71.31
2019-04-30T04:04:52.117Z,71.02
2019-04-30T04:07:46.294Z,70.99
2019-04-30T04:10:42.545Z,70.82
2019-04-30T04:13:13.619Z,70.67
2019-04-30T04:15:44.417Z,71.08
2019-04-30T04:18:15.442Z,71.11
2019-04-30T04:20:46.283Z,71.71
2019-04-30T04:23:19.277Z,71.29
2019-04-30T04:25:50.029Z,72.45
2019-04-30T04:28:21.309Z,71.12
2019-04-30T04:30:52.382Z,72.36
2019-04-30T04:33:23.618Z,71.97
2019-04-30T04:35:54.723Z,71.55
2019-04-30T04:38:25.599Z,71.55
2019-04-30T04:40:56.591Z,71.96
2019-04-30T04:43:29.881Z,71.87
2019-04-30T04:46:00.247Z,72.68
2019-04-30T04:48:31.253Z,71.98
2019-04-30T04:51:02.257Z,72.11
2019-04-30T04:53:33.221Z,72.08
2019-04-30T04:56:04.072Z,71.81
2019-04-30T04:58:35.182Z,71.28
2019-04-30T05:01:09.041Z,72.92
2019-04-30T05:03:42.203Z,72.62
2019-04-30T05:06:13.235Z,72.21
2019-04-30T05:08:44.358Z,72.70
2019-04-30T05:11:15.583Z,72.62
2019-04-30T05:13:46.607Z,73.16
2019-04-30T05:16:19.075Z,72.60
2019-04-30T05:18:50.473Z,72.21
2019-04-30T05:21:21.712Z,72.16
2019-04-30T05:23:52.619Z,71.86
2019-04-30T05:26:23.684Z,72.16
2019-04-30T05:28:54.700Z,72.68
2019-04-30T05:31:25.666Z,72.33
2019-04-30T05:33:58.585Z,71.94
2019-04-30T05:36:29.374Z,71.70
2019-04-30T05:39:00.319Z,71.39
2019-04-30T05:41:31.400Z,71.66
2019-04-30T05:44:02.365Z,71.73
2019-04-30T05:46:33.319Z,71.37
2019-04-30T05:49:04.130Z,71.37
2019-04-30T05:51:35.094Z,72.85
2019-04-30T05:54:09.404Z,72.94
2019-04-30T05:56:42.721Z,72.31
2019-04-30T05:59:13.496Z,72.25
2019-04-30T06:01:48.752Z,71.79
2019-04-30T06:04:17.011Z,72.08
2019-04-30T06:06:50.360Z,72.32
2019-04-30T06:09:38.588Z,71.80
2019-04-30T06:12:31.934Z,72.12
2019-04-30T06:15:34.357Z,71.43
2019-04-30T06:18:11.528Z,71.11
2019-04-30T06:20:39.148Z,71.13
2019-04-30T06:23:12.727Z,71.19
2019-04-30T06:26:09.956Z,70.08
2019-04-30T06:28:39.057Z,69.96
2019-04-30T06:31:15.194Z,68.97
2019-04-30T06:33:49.359Z,68.84
2019-04-30T06:36:32.154Z,67.37
2019-04-30T06:39:05.918Z,67.82
2019-04-30T06:41:36.853Z,67.09
2019-04-30T06:44:09.597Z,66.28
2019-04-30T06:46:43.367Z,66.30
2019-04-30T06:49:14.816Z,65.63
2019-04-30T06:51:46.156Z,64.93
2019-04-30T06:54:19.029Z,64.37
2019-04-30T06:56:49.791Z,63.21
2019-04-30T06:59:20.825Z,62.83
2019-04-30T07:01:51.796Z,61.94
2019-04-30T07:04:22.671Z,62.70
2019-04-30T07:06:53.764Z,62.21
2019-04-30T07:09:43.613Z,62.11
2019-04-30T07:12:25.414Z,62.15
2019-04-30T07:14:49.475Z,61.74
2019-04-30T07:17:21.120Z,62.28
2019-04-30T07:19:56.542Z,62.41
2019-04-30T07:22:37.582Z,62.48
2019-04-30T07:24:59.406Z,62.39
2019-04-30T07:27:32.262Z,62.73
2019-04-30T07:30:02.664Z,62.78
2019-04-30T07:32:33.665Z,62.62
2019-04-30T07:35:05.054Z,61.90
2019-04-30T07:37:35.975Z,62.18
2019-04-30T07:40:09.165Z,62.20
2019-04-30T07:42:44.830Z,62.19
2019-04-30T07:45:13.393Z,61.83
2019-04-30T07:47:49.280Z,61.42
2019-04-30T07:50:21.427Z,60.36
2019-04-30T07:53:02.577Z,61.18
2019-04-30T07:55:25.311Z,60.54
2019-04-30T07:57:56.386Z,60.41
2019-04-30T08:00:30.971Z,59.83
2019-04-30T08:03:20.610Z,58.93
2019-04-30T08:05:53.353Z,57.86
2019-04-30T08:08:25.628Z,57.42
2019-04-30T08:10:58.874Z,57.52
2019-04-30T08:13:32.874Z,57.28
2019-04-30T08:16:02.308Z,57.81
2019-04-30T08:18:33.406Z,56.54
2019-04-30T08:21:04.484Z,56.50
2019-04-30T08:23:37.238Z,57.19
2019-04-30T08:26:08.876Z,56.20
2019-04-30T08:28:39.998Z,57.09
2019-04-30T08:31:10.939Z,56.14
2019-04-30T08:33:41.943Z,56.10
2019-04-30T08:36:12.888Z,56.35
2019-04-30T08:38:43.860Z,53.30
2019-04-30T08:41:14.908Z,52.88
2019-04-30T08:43:49.478Z,53.10
2019-04-30T08:46:20.209Z,55.26
2019-04-30T08:48:53.708Z,50.33
2019-04-30T08:51:23.863Z,51.17
2019-04-30T08:53:54.670Z,51.93
2019-04-30T08:56:25.675Z,52.98
2019-04-30T08:58:56.761Z,51.66
2019-04-30T09:01:29.404Z,51.68
2019-04-30T09:04:00.559Z,50.16
2019-04-30T09:06:31.609Z,52.26
2019-04-30T09:09:11.051Z,50.25
2019-04-30T09:11:52.431Z,50.26
2019-04-30T09:14:15.113Z,48.92
2019-04-30T09:16:46.453Z,48.49
2019-04-30T09:19:21.314Z,49.64
2019-04-30T09:21:52.395Z,48.92
2019-04-30T09:24:23.388Z,48.00
2019-04-30T09:26:54.381Z,47.97
2019-04-30T09:29:25.342Z,47.51
2019-04-30T09:31:56.292Z,48.28
2019-04-30T09:34:29.125Z,49.17
2019-04-30T09:37:00.560Z,46.52
2019-04-30T09:39:31.500Z,48.29
2019-04-30T09:42:02.458Z,45.95
2019-04-30T09:44:33.352Z,46.09
2019-04-30T09:47:04.259Z,47.40
2019-04-30T09:49:35.193Z,46.76
2019-04-30T09:52:06.165Z,46.74
2019-04-30T09:54:37.115Z,45.04
2019-04-30T09:57:08.764Z,43.51
2019-04-30T09:59:40.798Z,49.42
2019-04-30T10:02:12.075Z,44.85
2019-04-30T10:04:43.497Z,44.22
2019-04-30T10:07:14.942Z,44.53
2019-04-30T10:09:45.976Z,43.59
2019-04-30T10:12:16.825Z,43.78
2019-04-30T10:14:49.504Z,44.63
2019-04-30T10:17:37.606Z,43.20
2019-04-30T10:20:11.213Z,45.01
2019-04-30T10:22:42.181Z,44.19
2019-04-30T10:25:13.232Z,47.40
2019-04-30T10:27:44.228Z,43.31
2019-04-30T10:30:15.677Z,43.72
2019-04-30T10:32:49.930Z,45.63
2019-04-30T10:35:20.360Z,43.20
2019-04-30T10:37:51.955Z,43.13
2019-04-30T10:40:24.341Z,41.73
2019-04-30T10:42:55.442Z,43.76
2019-04-30T10:45:28.639Z,42.65
2019-04-30T10:47:59.351Z,41.91
2019-04-30T10:50:30.592Z,41.82
2019-04-30T10:53:01.598Z,40.22
2019-04-30T10:55:32.583Z,40.59
2019-04-30T10:58:03.675Z,42.26
2019-04-30T11:00:40.132Z,40.25
2019-04-30T11:03:19.855Z,40.39
2019-04-30T11:05:46.047Z,41.21
2019-04-30T11:08:17.094Z,40.65
2019-04-30T11:10:48.172Z,42.48
2019-04-30T11:13:19.208Z,39.80
2019-04-30T11:15:50.157Z,40.21
2019-04-30T11:18:21.593Z,39.82
2019-04-30T11:20:53.660Z,41.07
2019-04-30T11:23:26.110Z,41.02
2019-04-30T11:25:59.752Z,38.54
2019-04-30T11:28:30.217Z,40.37
2019-04-30T11:31:19.379Z,39.94
2019-04-30T11:33:50.767Z,38.66
2019-04-30T11:36:22.122Z,38.57
2019-04-30T11:38:54.902Z,40.18
2019-04-30T11:41:30.814Z,41.60
2019-04-30T11:43:59.480Z,38.69
2019-04-30T11:47:25.928Z,36.97
2019-04-30T11:49:58.522Z,36.12
2019-04-30T11:52:29.527Z,36.01
2019-04-30T11:55:00.681Z,36.77
2019-04-30T11:57:31.685Z,37.43
2019-04-30T12:00:03.228Z,39.25
2019-04-30T12:02:39.337Z,35.82
2019-04-30T12:05:10.732Z,35.84
2019-04-30T12:08:00.649Z,36.59
2019-04-30T12:10:45.456Z,35.47
2019-04-30T12:13:27.008Z,34.21
2019-04-30T12:15:58.876Z,36.12
2019-04-30T12:18:30.314Z,39.47
2019-04-30T12:21:01.399Z,35.14
2019-04-30T12:23:32.471Z,34.83
2019-04-30T12:26:03.706Z,36.37
2019-04-30T12:28:34.872Z,35.38
2019-04-30T12:31:06.358Z,34.68
2019-04-30T12:33:37.468Z,37.75
2019-04-30T12:36:09.026Z,36.52
2019-04-30T12:38:40.377Z,35.95
2019-04-30T12:41:11.522Z,37.16
2019-04-30T12:43:42.607Z,36.82
2019-04-30T12:46:13.531Z,35.91
2019-04-30T12:49:10.198Z,37.27
2019-04-30T12:52:12.611Z,37.02
2019-04-30T12:54:59.295Z,36.30
2019-04-30T12:57:34.292Z,37.99
2019-04-30T13:00:09.639Z,35.08
2019-04-30T13:02:40.661Z,34.74
2019-04-30T13:05:11.622Z,36.25
2019-04-30T13:07:43.007Z,35.06
2019-04-30T13:10:15.053Z,35.49
2019-04-30T13:12:47.042Z,35.86
2019-04-30T13:15:18.499Z,36.63
2019-04-30T13:17:50.122Z,36.41
2019-04-30T13:20:23.999Z,33.87
2019-04-30T13:22:54.191Z,35.10
2019-04-30T13:25:32.381Z,35.66
2019-04-30T13:28:06.657Z,34.76
2019-04-30T13:30:39.596Z,36.34
2019-04-30T13:33:20.582Z,37.52
2019-04-30T13:35:51.665Z,35.50
2019-04-30T13:38:28.029Z,35.65
2019-04-30T13:41:21.753Z,35.51
2019-04-30T13:44:03.398Z,34.65
2019-04-30T13:46:34.416Z,36.22
2019-04-30T13:49:06.463Z,36.97
2019-04-30T13:51:37.440Z,36.33
2019-04-30T13:54:08.457Z,35.25
2019-04-30T13:56:39.738Z,35.15
2019-04-30T13:59:11.006Z,34.66
2019-04-30T14:01:41.954Z,34.74
2019-04-30T14:04:43.754Z,34.36
2019-04-30T14:07:40.262Z,33.88
2019-04-30T14:10:11.870Z,36.74
2019-04-30T14:12:48.465Z,35.17
2019-04-30T14:15:19.607Z,35.52
2019-04-30T14:17:50.600Z,36.11
2019-04-30T14:20:21.599Z,36.29
2019-04-30T14:22:52.562Z,36.03
2019-04-30T14:25:23.500Z,36.13
2019-04-30T14:27:54.926Z,35.51
2019-04-30T14:30:26.950Z,36.18
2019-04-30T14:32:59.327Z,36.48
2019-04-30T14:35:30.779Z,36.69
2019-04-30T14:38:05.016Z,35.34
2019-04-30T14:40:35.335Z,35.31
2019-04-30T14:43:12.390Z,35.91
2019-04-30T14:46:05.858Z,36.14
2019-04-30T14:48:44.142Z,36.47
2019-04-30T14:51:15.915Z,36.67
2019-04-30T14:54:05.827Z,35.89
2019-04-30T14:56:42.590Z,35.18
2019-04-30T14:59:32.545Z,36.43
2019-04-30T15:02:13.222Z,36.26
2019-04-30T15:04:44.169Z,36.09
2019-04-30T15:07:15.065Z,36.77
2019-04-30T15:09:46.045Z,38.28
2019-04-30T15:12:17.020Z,37.55
2019-04-30T15:14:49.248Z,37.84
2019-04-30T15:17:20.643Z,37.49
2019-04-30T15:19:54.410Z,37.98
2019-04-30T15:22:24.334Z,37.88
2019-04-30T15:24:55.882Z,37.98
2019-04-30T15:27:28.854Z,38.18
2019-04-30T15:29:59.638Z,38.33
2019-04-30T15:32:31.073Z,37.78
2019-04-30T15:35:02.726Z,38.96
2019-04-30T15:37:34.091Z,38.61
2019-04-30T15:40:08.951Z,39.14
2019-04-30T15:42:42.884Z,38.62
2019-04-30T15:45:15.450Z,38.38
2019-04-30T15:47:46.438Z,38.50
2019-04-30T15:50:19.137Z,38.78
2019-04-30T15:52:49.988Z,38.78
2019-04-30T15:55:20.936Z,38.93
2019-04-30T15:58:13.710Z,38.55
2019-04-30T16:00:44.699Z,39.00
2019-04-30T16:03:20.783Z,39.63
2019-04-30T16:05:52.995Z,40.89
2019-04-30T16:08:31.863Z,40.84
2019-04-30T16:11:21.658Z,41.34
2019-04-30T16:14:20.729Z,42.06
2019-04-30T16:17:02.685Z,41.79
2019-04-30T16:19:33.745Z,42.49
2019-04-30T16:22:05.007Z,42.09
2019-04-30T16:24:38.682Z,41.92
2019-04-30T16:27:09.643Z,42.61
2019-04-30T16:29:40.831Z,42.69
2019-04-30T16:32:11.957Z,42.37
2019-04-30T16:34:43.286Z,43.33
2019-04-30T16:37:14.261Z,43.13
2019-04-30T16:39:45.288Z,43.66
2019-04-30T16:42:16.508Z,44.03
2019-04-30T16:44:47.528Z,45.52
2019-04-30T16:47:19.868Z,45.51
2019-04-30T16:49:51.679Z,45.38
2019-04-30T16:52:22.734Z,45.99
2019-04-30T16:54:53.836Z,45.92
2019-04-30T16:57:24.768Z,45.44
2019-04-30T16:59:55.738Z,45.77
2019-04-30T17:02:29.328Z,45.90
2019-04-30T17:05:19.813Z,46.13
2019-04-30T17:08:02.324Z,46.48
2019-04-30T17:10:45.310Z,46.63
2019-04-30T17:13:23.066Z,47.16
2019-04-30T17:15:56.934Z,46.73
2019-04-30T17:18:29.738Z,47.30
2019-04-30T17:21:00.534Z,47.72
2019-04-30T17:23:31.468Z,47.85
2019-04-30T17:26:02.438Z,48.16
2019-04-30T17:28:33.431Z,48.40
2019-04-30T17:31:04.473Z,48.59
2019-04-30T17:33:35.622Z,48.28
2019-04-30T17:36:08.709Z,48.67
2019-04-30T17:38:39.956Z,48.39
2019-04-30T17:41:11.357Z,48.77
2019-04-30T17:43:42.503Z,49.25
2019-04-30T17:46:13.551Z,49.27
2019-04-30T17:48:44.496Z,49.41
2019-04-30T17:51:15.698Z,49.41
2019-04-30T17:54:04.479Z,49.34
2019-04-30T17:56:35.596Z,49.52
2019-04-30T17:59:06.532Z,49.76
2019-04-30T18:01:40.098Z,50.09
2019-04-30T18:04:11.960Z,49.64
2019-04-30T18:06:44.002Z,49.83
2019-04-30T18:09:15.277Z,50.21
2019-04-30T18:11:49.572Z,50.42
2019-04-30T18:14:22.102Z,50.31
2019-04-30T18:16:52.962Z,50.09
2019-04-30T18:19:30.675Z,50.16
2019-04-30T18:22:06.040Z,50.85
2019-04-30T18:24:54.852Z,51.21
2019-04-30T18:27:43.047Z,51.25
2019-04-30T18:30:04.624Z,50.51
2019-04-30T18:32:35.663Z,50.39
2019-04-30T18:35:08.338Z,50.42
2019-04-30T18:37:39.522Z,50.66
2019-04-30T18:40:10.810Z,49.87
2019-04-30T18:42:42.046Z,50.18
2019-04-30T18:45:13.333Z,50.38
2019-04-30T18:48:02.457Z,50.19
2019-04-30T18:50:31.734Z,50.25
2019-04-30T18:53:05.427Z,50.07
2019-04-30T18:55:36.327Z,50.16
2019-04-30T18:58:08.874Z,50.35
2019-04-30T19:00:44.516Z,50.09
2019-04-30T19:03:21.132Z,50.31
2019-04-30T19:06:03.179Z,49.88
2019-04-30T19:08:44.128Z,50.69
2019-04-30T19:11:52.379Z,50.05
2019-04-30T19:14:34.126Z,50.39
2019-04-30T19:17:30.562Z,50.47
2019-04-30T19:20:21.519Z,51.12
2019-04-30T19:23:06.212Z,50.96
2019-04-30T19:25:43.765Z,51.22
2019-04-30T19:28:22.571Z,50.82
2019-04-30T19:31:01.002Z,51.44
2019-04-30T19:33:33.245Z,51.48
2019-04-30T19:36:07.014Z,51.34
2019-04-30T19:38:45.886Z,51.63
2019-04-30T19:41:28.750Z,51.94
2019-04-30T19:44:11.111Z,52.23
2019-04-30T19:46:42.284Z,52.28
2019-04-30T19:49:19.266Z,53.52
2019-04-30T19:51:55.911Z,54.03
2019-04-30T19:54:43.254Z,53.03
2019-04-30T20:00:32.045Z,53.46
2019-04-30T20:03:03.268Z,53.07
2019-04-30T20:05:39.217Z,54.19
2019-04-30T20:08:12.328Z,54.06
2019-04-30T20:10:49.903Z,54.28
2019-04-30T20:13:33.144Z,54.26
2019-04-30T20:15:55.714Z,54.76
2019-04-30T20:18:33.817Z,54.74
2019-04-30T20:21:11.050Z,55.00
2019-04-30T20:23:57.702Z,54.84
2019-04-30T20:26:39.718Z,54.59
2019-04-30T20:29:44.911Z,55.30
2019-04-30T20:32:20.742Z,55.77
2019-04-30T20:35:00.537Z,55.12
2019-04-30T20:37:35.394Z,55.50
2019-04-30T20:40:14.581Z,55.78
2019-04-30T20:42:48.651Z,55.55
2019-04-30T20:45:24.393Z,56.54
2019-04-30T20:47:56.562Z,55.82
2019-04-30T20:50:37.822Z,55.57
2019-04-30T20:53:15.040Z,56.89
2019-04-30T20:55:59.395Z,56.28
2019-04-30T20:58:30.444Z,56.46
2019-04-30T21:01:06.306Z,56.43
2019-04-30T21:03:33.964Z,56.64
2019-04-30T21:06:04.925Z,56.32
2019-04-30T21:08:36.020Z,56.76
2019-04-30T21:11:07.022Z,57.14
2019-04-30T21:13:52.597Z,57.63
2019-04-30T21:16:26.631Z,57.24
2019-04-30T21:18:56.138Z,57.49
2019-04-30T21:21:28.758Z,57.02
2019-04-30T21:24:00.102Z,58.02
2019-04-30T21:26:36.776Z,57.56
2019-04-30T21:29:13.154Z,58.44
2019-04-30T21:32:03.383Z,58.01
2019-04-30T21:34:49.427Z,57.24
2019-04-30T21:37:20.824Z,57.46
2019-04-30T21:39:51.879Z,57.63
2019-04-30T21:42:22.886Z,57.46
2019-04-30T21:44:55.733Z,58.31
2019-04-30T21:47:26.840Z,58.09
2019-04-30T21:49:57.759Z,58.58
2019-04-30T21:52:28.880Z,58.23
2019-04-30T21:54:59.899Z,58.46
2019-04-30T21:57:30.989Z,58.97
2019-04-30T22:00:06.319Z,58.45
2019-04-30T22:02:38.343Z,58.87
2019-04-30T22:05:09.980Z,58.54
2019-04-30T22:07:40.891Z,58.89
2019-04-30T22:10:11.950Z,59.02
2019-04-30T22:12:42.864Z,59.32
2019-04-30T22:15:15.208Z,59.63
2019-04-30T22:17:46.117Z,60.48
2019-04-30T22:20:18.736Z,58.68
2019-04-30T22:22:49.867Z,58.58
2019-04-30T22:25:21.220Z,59.73
2019-04-30T22:27:52.621Z,60.34
2019-04-30T22:30:23.675Z,60.41
2019-04-30T22:32:54.711Z,59.30
2019-04-30T22:35:51.070Z,59.68
2019-04-30T22:38:26.137Z,59.81
2019-04-30T22:40:58.854Z,60.46
2019-04-30T22:43:29.764Z,61.45
2019-04-30T22:46:05.530Z,61.53
2019-04-30T22:48:36.394Z,62.34
2019-04-30T22:51:07.308Z,62.67
2019-04-30T22:53:38.261Z,64.02
2019-04-30T22:56:09.203Z,61.82
2019-04-30T22:58:40.145Z,62.42
2019-04-30T23:01:29.586Z,62.41
2019-04-30T23:04:05.357Z,62.38
2019-04-30T23:06:36.391Z,62.80
2019-04-30T23:09:09.143Z,63.40
2019-04-30T23:11:40.181Z,64.83
2019-04-30T23:14:11.190Z,64.51
2019-04-30T23:16:42.170Z,64.47
2019-04-30T23:19:13.257Z,63.73
2019-04-30T23:21:44.221Z,63.19
2019-04-30T23:24:15.172Z,62.38
2019-04-30T23:26:46.063Z,61.93
2019-04-30T23:29:17.110Z,61.81
2019-04-30T23:31:48.144Z,63.12
2019-04-30T23:34:19.214Z,63.41
2019-04-30T23:36:50.211Z,63.04
2019-04-30T23:39:21.960Z,61.97
2019-04-30T23:41:53.256Z,63.23
2019-04-30T23:44:26.130Z,63.46
2019-04-30T23:46:57.420Z,63.72
2019-04-30T23:49:28.553Z,64.05
2019-04-30T23:51:59.559Z,63.86
2019-04-30T23:54:30.400Z,64.17
2019-04-30T23:57:01.346Z,64.01
2019-04-30T23:59:32.208Z,65.11
